Airport View

Enter ICAO identifier to see the current METAR for that AWOS.

KFNL for example

KPIT 300151Z 24003KT 10SM BKN250 28/21 A2995 RMK AO2 SLP137 T02780211

30 Jul 2015 01:59

Phone: 412-472-0145

Other Area AWOS: 42PN - KAGC - KBVI - KBTP

TAF KPIT 292320Z 3000/3106 25004KT P6SM BKN250 FM300500 26005KT P6SM VCSH BKN035 FM300900 29008KT P6SM BKN040 FM301500 27008KT P6SM SCT040